Time;durP1;ratioP1;P1;durP2;ratioP2;P2;SDS_P1;SDS_P2;PMS_P1;PMS_P2;Temp;Humidity;BMP_temperature;BMP_pressure;BME280_temperature;BME280_humidity;BME280_pressure;Samples;Min_cycle;Max_cycle;Signal;HPM_P1;HPM_P2
2022/03/12 00:00:43;;;;;;;42.50;16.27;;;-3273.60;42.90;;;;;;5073823;28;19908;-84
2022/03/12 00:03:10;;;;;;;46.63;14.83;;;-3273.60;42.70;;;;;;5062425;28;20020;-84
2022/03/12 00:05:36;;;;;;;35.60;14.27;;;-3273.50;42.90;;;;;;5073965;28;20443;-84
2022/03/12 00:08:04;;;;;;;49.87;16.03;;;-3273.50;43.10;;;;;;5073281;28;20047;-85
2022/03/12 00:10:33;;;;;;;52.57;16.57;;;-3273.40;43.20;;;;;;5072430;28;20013;-84
2022/03/12 00:13:00;;;;;;;58.77;18.70;;;-3273.40;43.30;;;;;;5073339;28;20452;-84
2022/03/12 00:15:26;;;;;;;56.67;17.87;;;-3273.30;43.40;;;;;;5074668;28;20036;-84
2022/03/12 00:17:51;;;;;;;;;;;-3273.30;43.50;;;;;;5090664;28;20024;-84
2022/03/12 00:20:19;;;;;;;52.40;16.93;;;-3273.30;43.60;;;;;;5072957;28;19918;-84
2022/03/12 00:22:48;;;;;;;55.67;17.67;;;-3273.20;43.30;;;;;;5073150;28;20028;-84
2022/03/12 00:25:26;;;;;;;52.60;16.57;;;-3273.20;43.50;;;;;;5073035;28;20021;-82
2022/03/12 00:27:52;;;;;;;59.23;18.83;;;-3273.00;43.70;;;;;;5073340;28;20025;-82
2022/03/12 00:30:21;;;;;;;57.70;18.97;;;-3273.00;43.80;;;;;;5072650;28;20047;-84
2022/03/12 00:32:48;;;;;;;50.03;16.77;;;-3272.90;44.00;;;;;;5073335;28;20044;-84
2022/03/12 00:35:15;;;;;;;50.50;16.77;;;-3272.90;44.10;;;;;;5072461;28;20036;-84
2022/03/12 00:37:40;;;;;;;49.03;17.17;;;-3272.90;44.30;;;;;;5072595;28;20024;-84
2022/03/12 00:40:06;;;;;;;;;;;-3273.00;44.40;;;;;;5073562;28;20028;-84
2022/03/12 00:42:32;;;;;;;44.00;16.03;;;-3273.00;44.40;;;;;;5073472;28;19912;-84
2022/03/12 00:44:58;;;;;;;;;;;-3273.00;44.10;;;;;;5073406;28;20024;-84
2022/03/12 00:47:24;;;;;;;57.70;19.73;;;-3272.90;44.10;;;;;;5072785;28;19915;-84
2022/03/12 00:49:50;;;;;;;44.28;17.63;;;-3272.90;44.10;;;;;;5072782;28;20021;-83
2022/03/12 00:52:18;;;;;;;40.83;15.32;;;-3272.90;44.20;;;;;;5072887;28;20146;-83
2022/03/12 00:54:44;;;;;;;46.83;14.90;;;-3272.90;44.30;;;;;;5072757;28;20086;-84
2022/03/12 00:57:11;;;;;;;;;;;-3272.90;44.40;;;;;;5093561;28;20028;-84
2022/03/12 00:59:41;;;;;;;32.80;12.40;;;-3272.90;44.50;;;;;;5081952;28;19908;-85
2022/03/12 01:02:10;;;;;;;36.30;13.90;;;-3272.90;44.60;;;;;;5067430;28;20479;-84
2022/03/12 01:04:35;;;;;;;42.33;14.90;;;-3273.00;44.90;;;;;;5073212;28;20125;-83
2022/03/12 01:07:01;;;;;;;;;;;-3273.00;45.10;;;;;;5072831;28;20111;-84
2022/03/12 01:09:26;;;;;;;36.47;14.43;;;-3273.00;45.10;;;;;;5073654;28;19952;-84
2022/03/12 01:11:52;;;;;;;53.60;15.85;;;-3273.10;45.00;;;;;;5072912;28;20465;-83
2022/03/12 01:14:17;;;;;;;34.13;13.23;;;-3273.10;45.00;;;;;;5072529;28;20465;-84
2022/03/12 01:16:43;;;;;;;46.80;15.60;;;-3273.10;45.10;;;;;;5072227;28;20025;-83
2022/03/12 01:19:09;;;;;;;41.45;13.10;;;-3273.20;45.20;;;;;;5072140;28;20052;-85
2022/03/12 01:21:34;;;;;;;40.20;13.60;;;-3273.20;45.20;;;;;;5072722;28;20089;-84
2022/03/12 01:24:00;;;;;;;38.65;13.85;;;-3273.20;45.20;;;;;;5072041;28;20027;-85
2022/03/12 01:26:26;;;;;;;;;;;-3273.20;45.30;;;;;;5072777;28;20031;-85
2022/03/12 01:28:52;;;;;;;37.07;13.77;;;-3273.20;45.30;;;;;;5072334;28;20280;-85
2022/03/12 01:31:18;;;;;;;35.93;13.03;;;-3273.30;45.10;;;;;;5072147;28;20473;-85
2022/03/12 01:33:44;;;;;;;39.97;14.07;;;-3273.30;45.20;;;;;;5072117;28;20052;-85
2022/03/12 01:36:10;;;;;;;;;;;-3273.20;45.20;;;;;;5072497;28;20021;-83
2022/03/12 01:38:48;;;;;;;33.57;12.03;;;-3273.30;45.20;;;;;;5077302;28;19909;-84
2022/03/12 01:41:15;;;;;;;46.27;14.77;;;-3273.30;45.20;;;;;;5071683;28;20493;-83
2022/03/12 01:43:43;;;;;;;38.40;13.53;;;-3273.30;45.20;;;;;;5073543;28;20024;-84
2022/03/12 01:46:12;;;;;;;40.63;13.20;;;-3273.20;45.20;;;;;;5072049;28;20016;-84
2022/03/12 01:48:43;;;;;;;46.70;14.57;;;-3273.30;45.30;;;;;;5072081;28;20032;-84
2022/03/12 01:51:09;;;;;;;42.77;13.00;;;-3273.30;45.40;;;;;;5063097;28;20036;-83
2022/03/12 01:53:35;;;;;;;;;;;-3273.30;45.30;;;;;;5072617;28;20109;-84
2022/03/12 01:56:01;;;;;;;38.77;14.23;;;-3273.30;45.30;;;;;;5088871;28;19935;-83
2022/03/12 01:58:26;;;;;;;;;;;-3273.30;45.30;;;;;;5072284;28;20500;-83
2022/03/12 02:00:53;;;;;;;32.40;12.43;;;-3273.40;45.30;;;;;;5072035;28;19937;-84
2022/03/12 02:03:28;;;;;;;29.10;11.77;;;-3273.40;45.10;;;;;;5069521;28;20033;-84
2022/03/12 02:05:58;;;;;;;32.83;11.30;;;-3273.30;45.20;;;;;;5071988;28;20158;-84
2022/03/12 02:08:24;;;;;;;31.90;12.13;;;-3273.30;45.20;;;;;;5065031;28;20017;-84
2022/03/12 02:10:50;;;;;;;;;;;-3273.40;45.30;;;;;;5072226;28;20385;-84
2022/03/12 02:13:17;;;;;;;45.73;19.13;;;-3273.40;45.30;;;;;;5071441;28;19908;-84
2022/03/12 02:15:43;;;;;;;45.80;16.80;;;-3273.40;45.10;;;;;;5071839;28;20024;-84
2022/03/12 02:18:11;;;;;;;39.40;14.00;;;-3273.40;45.20;;;;;;5071233;28;20035;-84
2022/03/12 02:20:38;;;;;;;51.80;12.40;;;-3273.40;45.20;;;;;;5071129;28;20045;-84
2022/03/12 02:23:07;;;;;;;38.50;13.30;;;-3273.40;45.30;;;;;;5071794;28;20020;-84
2022/03/12 02:25:34;;;;;;;36.67;11.07;;;-3273.40;45.40;;;;;;5072071;28;20066;-84
2022/03/12 02:28:02;;;;;;;38.00;11.57;;;-3273.50;45.40;;;;;;5071742;28;20030;-84
2022/03/12 02:30:36;;;;;;;37.40;13.00;;;-3273.50;45.30;;;;;;5071844;28;20032;-84
2022/03/12 02:33:02;;;;;;;44.30;14.97;;;-3273.50;45.40;;;;;;5075429;28;20017;-83
2022/03/12 02:35:34;;;;;;;32.30;12.27;;;-3273.50;45.40;;;;;;5075132;28;20036;-83
2022/03/12 02:38:03;;;;;;;39.73;11.93;;;-3273.50;45.40;;;;;;5075111;28;20028;-83
2022/03/12 02:40:29;;;;;;;37.33;12.00;;;-3273.50;45.40;;;;;;5071326;28;20071;-83
2022/03/12 02:42:56;;;;;;;;;;;-3273.50;45.60;;;;;;5075701;28;20044;-83
2022/03/12 02:45:25;;;;;;;21.38;8.20;;;-3273.50;45.60;;;;;;5074862;28;20340;-84
2022/03/12 02:47:50;;;;;;;37.47;11.77;;;-3273.50;45.50;;;;;;5075299;28;20448;-84
2022/03/12 02:50:16;;;;;;;;;;;-3273.60;45.60;;;;;;5075634;28;20055;-84
2022/03/12 02:52:44;;;;;;;35.03;12.80;;;-3273.50;45.50;;;;;;5074966;28;19908;-84
2022/03/12 02:55:15;;;;;;;31.23;12.17;;;-3273.50;45.60;;;;;;5074721;28;20028;-84
2022/03/12 02:57:44;;;;;;;19.10;7.50;;;-3273.50;45.70;;;;;;5074571;28;20593;-84
2022/03/12 03:00:10;;;;;;;24.87;9.57;;;-3273.50;45.80;;;;;;5074299;28;20060;-84
2022/03/12 03:02:39;;;;;;;28.77;11.67;;;-3273.50;45.90;;;;;;5074299;28;20032;-84
2022/03/12 03:05:31;;;;;;;32.37;12.37;;;-3273.50;45.90;;;;;;5074716;28;20070;-84
2022/03/12 03:08:09;;;;;;;30.70;10.93;;;-3273.50;46.00;;;;;;5074017;28;20013;-83
2022/03/12 03:10:42;;;;;;;24.27;10.30;;;-3273.50;45.90;;;;;;5073557;28;20039;-84
2022/03/12 03:13:29;;;;;;;32.83;12.07;;;-3273.50;45.90;;;;;;5054335;28;20029;-84
2022/03/12 03:15:59;;;;;;;37.95;12.77;;;-3273.50;45.80;;;;;;5054154;28;20036;-85
2022/03/12 03:18:29;;;;;;;39.10;13.20;;;-3273.50;45.90;;;;;;5054330;28;20029;-85
2022/03/12 03:20:56;;;;;;;38.07;11.80;;;-3273.50;45.80;;;;;;5074432;28;20064;-85
2022/03/12 03:23:24;;;;;;;29.87;11.47;;;-3273.50;45.80;;;;;;5074577;28;20029;-84
2022/03/12 03:25:50;;;;;;;36.83;12.73;;;-3273.40;45.80;;;;;;5074233;28;20032;-83
2022/03/12 03:28:15;;;;;;;;;;;-3273.40;45.90;;;;;;5075281;28;20143;-83
2022/03/12 03:30:41;;;;;;;32.67;11.87;;;-3273.40;45.90;;;;;;5073915;28;20340;-83
2022/03/12 03:33:09;;;;;;;41.60;11.93;;;-3273.40;45.80;;;;;;5074648;28;20036;-84
2022/03/12 03:35:38;;;;;;;40.63;12.30;;;-3273.30;45.90;;;;;;5080262;28;20458;-84
2022/03/12 03:38:07;;;;;;;30.30;12.67;;;-3273.30;45.90;;;;;;5065961;28;20381;-84
2022/03/12 03:40:33;;;;;;;30.33;12.80;;;-3273.30;45.90;;;;;;5074353;28;20033;-84
2022/03/12 03:42:58;;;;;;;;;;;-3273.30;45.90;;;;;;5073815;28;20029;-84
2022/03/12 03:45:27;;;;;;;33.67;11.43;;;-3273.30;46.00;;;;;;5074112;28;19908;-84
2022/03/12 03:47:55;;;;;;;36.47;11.93;;;-3273.20;45.80;;;;;;5074237;28;20519;-84
2022/03/12 03:50:25;;;;;;;41.27;12.77;;;-3273.10;45.90;;;;;;5074029;28;20016;-84
2022/03/12 03:53:03;;;;;;;30.20;12.77;;;-3273.00;46.00;;;;;;5073776;28;20484;-85
2022/03/12 03:55:30;;;;;;;33.77;11.97;;;-3272.90;46.10;;;;;;5073707;28;20028;-85
2022/03/12 03:57:56;;;;;;;42.83;15.83;;;-3272.90;46.20;;;;;;5073053;28;20063;-83
2022/03/12 04:00:22;;;;;;;45.87;15.23;;;-3272.80;46.40;;;;;;5075073;28;20392;-83
2022/03/12 04:03:02;;;;;;;45.17;15.50;;;-3272.80;46.50;;;;;;5073665;28;20048;-84
2022/03/12 04:05:32;;;;;;;36.17;14.37;;;-3272.70;46.60;;;;;;5071142;28;20025;-83
2022/03/12 04:08:00;;;;;;;48.80;15.50;;;-3272.60;46.70;;;;;;5073642;28;20041;-84
2022/03/12 04:10:25;;;;;;;35.60;13.60;;;-3272.60;46.80;;;;;;5073484;28;20020;-84
2022/03/12 04:12:51;;;;;;;;;;;-3272.50;46.90;;;;;;5073927;28;20024;-84
2022/03/12 04:15:17;;;;;;;34.53;13.07;;;-3272.40;47.00;;;;;;5072968;28;19962;-84
2022/03/12 04:17:45;;;;;;;40.05;14.52;;;-3272.40;46.70;;;;;;5073445;28;20050;-84
2022/03/12 04:20:13;;;;;;;40.80;14.03;;;-3272.30;46.90;;;;;;5073054;28;20097;-84
2022/03/12 04:22:41;;;;;;;41.60;14.07;;;-3272.20;47.10;;;;;;5073503;28;20119;-84
2022/03/12 04:25:11;;;;;;;41.17;13.90;;;-3272.20;47.30;;;;;;5090246;28;20033;-84
2022/03/12 04:27:38;;;;;;;44.60;13.83;;;-3272.10;47.40;;;;;;5073152;28;20025;-84
2022/03/12 04:30:06;;;;;;;35.93;13.43;;;-3272.10;47.50;;;;;;5073022;28;20725;-84
2022/03/12 04:32:32;;;;;;;47.43;16.27;;;-3272.00;47.70;;;;;;5065362;28;20029;-83
2022/03/12 04:34:58;;;;;;;43.55;15.20;;;-3272.00;47.80;;;;;;5073224;28;20296;-84
2022/03/12 04:37:23;;;;;;;;;;;-3271.90;47.90;;;;;;5073174;28;20024;-84
2022/03/12 04:39:49;;;;;;;30.90;13.47;;;-3271.90;48.00;;;;;;5072848;28;19958;-84
2022/03/12 04:42:18;;;;;;;;;;;-3271.80;47.70;;;;;;5072957;28;20027;-84
2022/03/12 04:44:44;;;;;;;37.27;14.40;;;-3271.80;47.80;;;;;;5073039;28;19951;-84
2022/03/12 04:47:13;;;;;;;41.22;13.75;;;-3271.80;47.70;;;;;;5073027;28;20321;-84
2022/03/12 04:49:39;;;;;;;44.57;15.73;;;-3271.70;47.80;;;;;;5064695;28;20029;-83
2022/03/12 04:52:05;;;;;;;41.38;15.75;;;-3271.70;48.00;;;;;;5072927;28;20639;-84
2022/03/12 04:54:32;;;;;;;40.57;14.73;;;-3271.70;48.20;;;;;;5089395;28;20028;-84
2022/03/12 04:56:58;;;;;;;40.37;13.87;;;-3271.60;48.30;;;;;;5072461;28;20400;-84
2022/03/12 04:59:23;;;;;;;;;;;-3271.50;48.50;;;;;;5073260;28;20365;-84
2022/03/12 05:01:49;;;;;;;33.70;13.03;;;-3271.50;48.60;;;;;;5072883;28;20377;-84
2022/03/12 05:04:15;;;;;;;;;;;-3271.50;48.50;;;;;;5073124;28;20036;-82
2022/03/12 05:06:40;;;;;;;26.23;11.43;;;-3271.40;48.60;;;;;;5072616;28;19930;-84
2022/03/12 05:09:06;;;;;;;;;;;-3271.40;48.50;;;;;;5073131;28;20025;-83
2022/03/12 05:11:36;;;;;;;33.70;10.67;;;-3271.40;48.60;;;;;;5106192;28;20041;-82
2022/03/12 05:14:04;;;;;;;27.87;11.27;;;-3271.40;48.60;;;;;;5071908;28;20017;-83
2022/03/12 05:16:31;;;;;;;23.07;11.27;;;-3271.30;48.90;;;;;;5072484;28;20278;-84
2022/03/12 05:18:57;;;;;;;36.20;10.87;;;-3271.30;49.10;;;;;;5071942;28;20286;-84
2022/03/12 05:21:23;;;;;;;34.17;12.80;;;-3271.40;49.50;;;;;;5072743;28;20297;-84
2022/03/12 05:23:49;;;;;;;50.85;15.70;;;-3271.40;49.60;;;;;;5072442;28;20862;-84
2022/03/12 05:26:14;;;;;;;;;;;-3271.50;49.60;;;;;;5072754;28;20115;-84
2022/03/12 05:28:41;;;;;;;26.77;9.33;;;-3271.50;49.50;;;;;;5073775;28;19908;-83
2022/03/12 05:31:09;;;;;;;49.67;14.53;;;-3271.60;49.60;;;;;;5072325;28;20070;-83
2022/03/12 05:33:35;;;;;;;35.20;13.40;;;-3271.70;49.80;;;;;;5073726;28;20655;-83
2022/03/12 05:36:02;;;;;;;46.50;12.67;;;-3271.80;49.70;;;;;;5073491;28;20297;-83
2022/03/12 05:38:31;;;;;;;41.87;16.33;;;-3271.90;49.70;;;;;;5075018;28;20031;-83
2022/03/12 05:40:58;;;;;;;32.00;11.23;;;-3272.00;49.70;;;;;;5072134;28;20255;-85
2022/03/12 05:43:26;;;;;;;28.77;12.73;;;-3272.10;49.70;;;;;;5073739;28;20024;-83
2022/03/12 05:45:52;;;;;;;40.33;12.00;;;-3272.20;49.60;;;;;;5072259;28;20389;-83
2022/03/12 05:48:19;;;;;;;28.53;11.80;;;-3272.30;49.70;;;;;;5088728;28;20270;-83
2022/03/12 05:50:48;;;;;;;31.73;13.30;;;-3272.40;49.70;;;;;;5072079;28;20033;-83
2022/03/12 05:53:18;;;;;;;35.47;13.13;;;-3272.60;49.60;;;;;;5072139;28;20043;-83
2022/03/12 05:55:47;;;;;;;27.47;12.83;;;-3272.70;49.60;;;;;;5072602;28;20051;-84
2022/03/12 05:58:15;;;;;;;32.70;12.70;;;-3272.80;49.60;;;;;;5072630;28;20025;-83
2022/03/12 06:00:41;;;;;;;34.97;13.33;;;-3272.80;49.70;;;;;;5073967;28;20095;-84
2022/03/12 06:03:10;;;;;;;;;;;-3273.00;49.40;;;;;;5073975;28;20429;-83
2022/03/12 06:05:40;;;;;;;39.00;13.10;;;-3273.10;49.50;;;;;;5072374;28;19939;-83
2022/03/12 06:08:07;;;;;;;31.97;11.60;;;-3273.20;49.20;;;;;;5074347;28;20422;-86
2022/03/12 06:10:34;;;;;;;37.37;13.33;;;-3273.30;49.10;;;;;;5075922;28;20013;-86
2022/03/12 06:13:01;;;;;;;41.73;13.07;;;-3273.40;49.10;;;;;;5075904;28;20508;-86
2022/03/12 06:15:27;;;;;;;37.57;12.77;;;-3273.50;49.00;;;;;;5074262;28;20061;-86
2022/03/12 06:17:54;;;;;;;44.30;13.43;;;-3273.60;49.00;;;;;;5076370;28;20492;-86
2022/03/12 06:20:21;;;;;;;40.80;13.03;;;-3273.70;48.90;;;;;;5076946;28;20390;-86
2022/03/12 06:22:49;;;;;;;36.90;12.83;;;-3273.80;48.80;;;;;;5078329;28;20028;-86
2022/03/12 06:25:16;;;;;;;40.90;13.50;;;-3273.90;48.70;;;;;;5076874;28;20481;-86
2022/03/12 06:27:46;;;;;;;35.70;12.80;;;-3274.00;48.60;;;;;;5077316;28;20092;-86
2022/03/12 06:30:12;;;;;;;39.23;13.90;;;-3274.10;48.50;;;;;;5091219;28;20121;-86
2022/03/12 06:32:42;;;;;;;36.07;13.57;;;-3274.30;48.40;;;;;;5075830;28;20025;-87
2022/03/12 06:35:08;;;;;;;41.33;13.47;;;-3274.40;48.30;;;;;;5081217;28;20134;-87
2022/03/12 06:37:34;;;;;;;29.23;11.63;;;-3274.50;48.20;;;;;;5077861;28;20481;-86
2022/03/12 06:40:00;;;;;;;;;;;-3274.70;48.10;;;;;;5094622;28;20080;-86
2022/03/12 06:42:27;;;;;;;33.57;12.37;;;-3274.80;48.00;;;;;;5078516;28;19999;-87
2022/03/12 06:44:54;;;;;;;38.23;12.43;;;-3274.90;47.70;;;;;;5075461;28;20516;-87
2022/03/12 06:47:20;;;;;;;31.87;12.17;;;-3275.00;47.80;;;;;;5075160;28;20028;-86
2022/03/12 06:49:46;;;;;;;30.03;11.73;;;-3275.10;47.60;;;;;;5074459;28;20074;-86
2022/03/12 06:52:11;;;;;;;32.58;12.05;;;-3275.20;47.50;;;;;;5075143;28;20028;-86
2022/03/12 06:54:38;;;;;;;29.52;10.82;;;-3275.30;47.40;;;;;;5074803;28;20071;-86
2022/03/12 06:57:04;;;;;;;33.43;12.33;;;-3275.50;47.30;;;;;;5075024;28;20048;-86
2022/03/12 06:59:31;;;;;;;30.67;12.53;;;-3275.60;47.20;;;;;;5075220;28;20020;-86
2022/03/12 07:01:57;;;;;;;32.97;12.30;;;-3275.60;47.10;;;;;;5073452;28;20056;-86
2022/03/12 07:04:23;;;;;;;30.95;12.57;;;-3275.70;47.10;;;;;;5074257;28;20051;-86
2022/03/12 07:06:49;;;;;;;;;;;-3275.90;47.00;;;;;;5076679;28;20020;-86
2022/03/12 07:09:15;;;;;;;40.73;13.77;;;-3276.00;46.90;;;;;;5074860;28;19909;-88
2022/03/12 07:11:41;;;;;;;38.40;13.37;;;-3276.20;46.60;;;;;;5074680;28;20028;-87
2022/03/12 07:14:10;;;;;;;36.53;13.48;;;-3276.20;46.50;;;;;;5074855;28;20025;-87
2022/03/12 07:16:36;;;;;;;39.13;14.60;;;-3276.30;46.50;;;;;;5074942;28;20029;-87
2022/03/12 07:19:02;;;;;;;40.53;13.38;;;-3276.40;46.40;;;;;;5074289;28;20488;-87
2022/03/12 07:21:28;;;;;;;31.60;12.65;;;-3276.50;46.40;;;;;;5075856;28;20358;-87
2022/03/12 07:23:54;;;;;;;;;;;-3276.60;46.30;;;;;;5075779;28;20025;-87
2022/03/12 07:26:20;;;;;;;38.93;12.43;;;-3276.70;46.20;;;;;;5074971;28;19908;-87
2022/03/12 07:28:46;;;;;;;35.27;13.70;;;0.00;45.80;;;;;;5074568;28;20032;-86
2022/03/12 07:31:14;;;;;;;41.70;15.95;;;0.00;45.80;;;;;;5075993;28;20029;-87
2022/03/12 07:33:39;;;;;;;43.60;12.83;;;0.10;45.70;;;;;;5074514;28;20024;-87
2022/03/12 07:36:05;;;;;;;36.47;12.60;;;0.10;45.60;;;;;;5074152;28;20044;-87
2022/03/12 07:38:31;;;;;;;37.75;12.98;;;0.30;45.50;;;;;;5073723;28;20032;-88
2022/03/12 07:40:57;;;;;;;31.50;12.00;;;0.30;45.30;;;;;;5073060;28;20031;-87
2022/03/12 07:43:23;;;;;;;29.03;11.10;;;0.40;45.20;;;;;;5073986;28;20057;-87
2022/03/12 07:45:48;;;;;;;33.58;13.18;;;0.50;45.00;;;;;;5074132;28;20032;-85
2022/03/12 07:48:14;;;;;;;37.42;13.55;;;0.60;44.90;;;;;;5073050;28;20049;-87
2022/03/12 07:50:39;;;;;;;31.08;11.02;;;0.70;44.80;;;;;;5073686;28;20469;-87
2022/03/12 07:53:05;;;;;;;29.60;12.23;;;0.70;44.50;;;;;;5075185;28;20054;-85
2022/03/12 07:55:31;;;;;;;27.60;10.48;;;0.80;44.40;;;;;;5076257;28;20066;-88
2022/03/12 07:57:57;;;;;;;29.10;10.70;;;0.90;44.20;;;;;;5073339;28;20029;-86
2022/03/12 08:00:28;;;;;;;;;;;1.00;44.00;;;;;;5073959;28;20036;-86
2022/03/12 08:02:54;;;;;;;31.60;11.33;;;1.10;43.80;;;;;;5073663;28;19952;-85
2022/03/12 08:05:23;;;;;;;31.60;11.18;;;1.20;43.50;;;;;;5073216;28;20027;-85
2022/03/12 08:07:50;;;;;;;28.77;10.03;;;1.30;43.50;;;;;;5072612;28;20095;-85
2022/03/12 08:10:15;;;;;;;30.30;11.77;;;1.30;43.30;;;;;;5073020;28;20031;-85
2022/03/12 08:12:41;;;;;;;30.90;10.82;;;1.40;43.10;;;;;;5072599;28;20469;-85
2022/03/12 08:15:08;;;;;;;27.73;9.90;;;1.40;42.90;;;;;;5072986;28;20028;-85
2022/03/12 08:17:34;;;;;;;31.73;12.27;;;1.60;42.70;;;;;;5070357;28;20404;-85
2022/03/12 08:20:00;;;;;;;34.22;12.10;;;1.60;42.40;;;;;;5072423;28;20504;-85
2022/03/12 08:22:26;;;;;;;25.75;10.13;;;1.70;42.20;;;;;;5072863;28;20032;-86
2022/03/12 08:24:52;;;;;;;27.40;10.10;;;1.80;42.00;;;;;;5072910;28;20020;-85
2022/03/12 08:27:18;;;;;;;28.60;10.33;;;1.90;41.80;;;;;;5072950;28;20036;-86
2022/03/12 08:29:44;;;;;;;33.13;11.40;;;1.90;41.70;;;;;;5089087;28;20108;-86
2022/03/12 08:32:11;;;;;;;24.10;10.38;;;2.00;41.40;;;;;;5089832;28;20119;-84
2022/03/12 08:34:37;;;;;;;26.87;9.23;;;2.10;41.20;;;;;;5072548;28;20055;-86
2022/03/12 08:37:04;;;;;;;31.75;10.85;;;2.20;41.10;;;;;;5072980;28;20465;-86
2022/03/12 08:39:31;;;;;;;28.37;10.50;;;2.30;40.60;;;;;;5072338;28;20024;-85
2022/03/12 08:41:56;;;;;;;28.10;9.73;;;2.30;40.50;;;;;;5073783;28;20428;-84
2022/03/12 08:44:23;;;;;;;24.27;7.10;;;2.40;40.40;;;;;;5072429;28;20016;-82
2022/03/12 08:46:48;;;;;;;;;;;2.50;40.10;;;;;;5071928;28;20034;-85
2022/03/12 08:49:16;;;;;;;15.47;6.87;;;2.60;39.90;;;;;;5072462;28;20258;-85
2022/03/12 08:51:42;;;;;;;19.90;7.60;;;2.70;39.50;;;;;;5074532;28;20025;-85
2022/03/12 08:54:08;;;;;;;;;;;2.80;39.20;;;;;;5072503;28;20025;-87
2022/03/12 08:56:34;;;;;;;20.80;7.53;;;2.80;39.30;;;;;;5069341;28;19915;-85
2022/03/12 08:58:59;;;;;;;;;;;2.90;39.10;;;;;;5072723;28;20481;-85
2022/03/12 09:01:25;;;;;;;19.10;8.40;;;3.00;39.10;;;;;;5074354;28;19919;-85
2022/03/12 09:03:51;;;;;;;24.33;9.75;;;3.10;38.80;;;;;;5071814;28;20070;-85
2022/03/12 09:06:17;;;;;;;;;;;3.20;38.70;;;;;;5073908;28;20020;-89
2022/03/12 09:08:45;;;;;;;20.07;7.73;;;3.30;38.70;;;;;;5074435;28;19915;-89
2022/03/12 09:11:10;;;;;;;23.53;8.80;;;3.50;38.50;;;;;;5073846;28;20021;-86
2022/03/12 09:13:39;;;;;;;18.77;7.95;;;3.60;38.10;;;;;;5073762;28;20040;-89
2022/03/12 09:16:05;;;;;;;21.43;9.37;;;3.70;38.00;;;;;;5075153;28;20028;-87
2022/03/12 09:18:31;;;;;;;19.40;6.00;;;3.80;37.50;;;;;;5073274;28;20020;-87
2022/03/12 09:20:56;;;;;;;22.70;8.38;;;3.90;37.40;;;;;;5088377;28;20040;-87
2022/03/12 09:23:22;;;;;;;19.88;7.80;;;4.00;37.40;;;;;;5072380;28;20024;-87
2022/03/12 09:25:50;;;;;;;22.83;7.80;;;4.10;37.30;;;;;;5072569;28;20013;-88
2022/03/12 09:28:16;;;;;;;25.47;9.43;;;4.20;37.10;;;;;;5072512;28;20611;-88
2022/03/12 09:30:43;;;;;;;21.13;8.27;;;4.30;36.80;;;;;;5072654;28;20016;-88
2022/03/12 09:33:09;;;;;;;21.23;8.70;;;4.30;36.70;;;;;;5072295;28;20036;-87
2022/03/12 09:35:35;;;;;;;19.23;7.57;;;4.40;36.70;;;;;;5072833;28;20099;-88
2022/03/12 09:38:02;;;;;;;25.92;9.60;;;4.50;36.50;;;;;;5092845;28;20060;-87
2022/03/12 09:40:30;;;;;;;21.17;8.40;;;4.60;36.10;;;;;;5071388;28;20029;-87
2022/03/12 09:42:56;;;;;;;18.23;7.30;;;4.70;36.10;;;;;;5083392;28;20033;-88
2022/03/12 09:45:22;;;;;;;17.13;6.85;;;4.80;35.90;;;;;;5083243;28;20481;-87
2022/03/12 09:47:49;;;;;;;19.27;7.57;;;4.90;35.40;;;;;;5082879;28;20029;-87
2022/03/12 09:50:14;;;;;;;19.63;8.97;;;5.00;35.20;;;;;;5081967;28;20028;-87
2022/03/12 09:52:41;;;;;;;20.67;7.20;;;5.20;34.90;;;;;;5080252;28;20024;-87
2022/03/12 09:55:07;;;;;;;18.43;8.13;;;5.30;34.40;;;;;;5079927;28;20095;-88
2022/03/12 09:57:34;;;;;;;17.37;7.63;;;5.40;34.00;;;;;;5080455;28;20024;-87
2022/03/12 10:00:00;;;;;;;13.60;5.77;;;5.40;33.90;;;;;;5080450;28;20416;-88
2022/03/12 10:02:26;;;;;;;13.93;6.13;;;5.60;33.50;;;;;;5085344;28;20030;-88
2022/03/12 10:04:53;;;;;;;18.15;6.75;;;5.60;33.20;;;;;;5081390;28;20044;-87
2022/03/12 10:07:19;;;;;;;16.73;5.93;;;5.70;32.30;;;;;;5080380;28;20019;-87
2022/03/12 10:09:44;;;;;;;13.23;5.30;;;5.80;32.00;;;;;;5082312;28;20025;-87
2022/03/12 10:12:10;;;;;;;17.48;5.65;;;5.80;31.80;;;;;;5099874;28;20358;-87
2022/03/12 10:14:36;;;;;;;18.70;7.53;;;5.90;31.40;;;;;;5081601;28;20090;-87
2022/03/12 10:17:03;;;;;;;19.95;7.75;;;5.90;31.10;;;;;;5081067;28;20024;-87
2022/03/12 10:19:34;;;;;;;16.77;6.43;;;6.10;31.30;;;;;;5081517;28;20041;-87
2022/03/12 10:22:00;;;;;;;25.40;7.87;;;6.30;31.20;;;;;;5083489;28;20105;-86
2022/03/12 10:24:25;;;;;;;17.65;7.60;;;7.30;30.30;;;;;;5082939;28;20056;-87
2022/03/12 10:26:51;;;;;;;16.65;7.07;;;8.80;29.10;;;;;;5082461;28;20393;-87
2022/03/12 10:29:17;;;;;;;16.75;7.40;;;10.40;28.00;;;;;;5077395;28;20055;-88
2022/03/12 10:31:42;;;;;;;17.55;7.88;;;11.90;26.70;;;;;;5077820;28;20599;-88
2022/03/12 10:34:23;;;;;;;;;;;13.30;25.80;;;;;;5077127;28;20052;-89
2022/03/12 10:36:54;;;;;;;21.67;8.38;;;14.60;25.70;;;;;;5093606;28;19905;-87
2022/03/12 10:39:35;;;;;;;21.65;8.05;;;16.00;24.40;;;;;;5076749;28;20385;-89
2022/03/12 10:42:07;;;;;;;21.80;8.55;;;17.10;22.80;;;;;;5076233;28;20024;-87
2022/03/12 10:44:38;;;;;;;20.15;10.25;;;17.50;21.70;;;;;;5075640;28;20118;-87
2022/03/12 10:47:16;;;;;;;22.02;9.80;;;17.70;21.60;;;;;;5073750;28;20091;-88
2022/03/12 10:49:58;;;;;;;16.70;9.05;;;18.20;21.30;;;;;;5075220;28;20412;-89
2022/03/12 10:52:27;;;;;;;17.42;8.32;;;18.80;20.60;;;;;;5074273;28;20112;-88
2022/03/12 10:54:53;;;;;;;24.48;8.88;;;19.50;20.60;;;;;;5075193;28;20032;-88
2022/03/12 10:57:19;;;;;;;19.20;9.50;;;20.30;20.10;;;;;;5074702;28;20021;-87
2022/03/12 10:59:45;;;;;;;18.33;9.82;;;21.10;19.20;;;;;;5075518;28;20024;-87
2022/03/12 11:02:11;;;;;;;23.25;10.48;;;21.60;18.50;;;;;;5075276;28;20048;-88
2022/03/12 11:04:39;;;;;;;22.80;9.90;;;21.90;17.90;;;;;;5074529;28;20466;-88
2022/03/12 11:07:26;;;;;;;22.50;11.18;;;22.60;17.80;;;;;;5075553;28;20032;-87
2022/03/12 11:09:53;;;;;;;20.77;10.35;;;23.30;17.00;;;;;;5071683;28;20489;-87
2022/03/12 11:12:31;;;;;;;18.35;10.85;;;23.60;16.70;;;;;;5074970;28;20458;-87
2022/03/12 11:15:11;;;;;;;22.15;10.88;;;23.90;16.20;;;;;;5071935;28;20028;-88
2022/03/12 11:17:48;;;;;;;24.50;11.02;;;24.10;16.20;;;;;;5074723;28;20021;-87
2022/03/12 11:20:28;;;;;;;21.85;10.93;;;24.60;16.20;;;;;;5074651;28;20073;-88
2022/03/12 11:23:12;;;;;;;22.13;12.00;;;24.80;15.60;;;;;;5074776;28;20544;-87
2022/03/12 11:26:05;;;;;;;20.83;11.75;;;25.00;15.40;;;;;;5073414;28;20094;-88
2022/03/12 11:28:31;;;;;;;18.92;9.98;;;25.00;15.40;;;;;;5074735;28;20376;-88
2022/03/12 11:31:01;;;;;;;17.58;9.00;;;24.80;15.30;;;;;;5075845;28;20095;-88
2022/03/12 11:33:27;;;;;;;16.42;8.40;;;25.10;15.00;;;;;;5074581;28;20033;-83
2022/03/12 11:36:02;;;;;;;18.33;8.55;;;25.30;14.50;;;;;;5073168;28;20025;-84
2022/03/12 11:38:28;;;;;;;21.15;9.57;;;25.60;14.30;;;;;;5071485;28;20525;-83
2022/03/12 11:41:20;;;;;;;18.42;8.65;;;25.50;14.30;;;;;;5072880;28;20021;-83
2022/03/12 11:43:47;;;;;;;18.52;9.02;;;25.40;14.20;;;;;;5071714;28;20047;-83
2022/03/12 11:46:13;;;;;;;20.13;8.45;;;25.80;14.30;;;;;;5077341;28;20381;-84
2022/03/12 11:48:41;;;;;;;18.02;9.25;;;26.30;13.80;;;;;;5073158;28;20107;-84
2022/03/12 11:51:22;;;;;;;17.90;8.80;;;26.50;13.60;;;;;;5072761;28;20091;-84
2022/03/12 11:53:48;;;;;;;16.58;9.25;;;26.60;13.30;;;;;;5070705;28;20036;-84
2022/03/12 11:56:15;;;;;;;16.13;9.43;;;26.50;13.10;;;;;;5072478;28;20059;-86
2022/03/12 11:58:42;;;;;;;16.17;8.75;;;26.50;13.30;;;;;;5072420;28;20419;-85
2022/03/12 12:01:10;;;;;;;20.30;9.88;;;26.50;13.20;;;;;;5072724;28;20021;-84
2022/03/12 12:03:36;;;;;;;13.93;8.43;;;26.30;13.30;;;;;;5072358;28;20491;-85
2022/03/12 12:06:02;;;;;;;15.43;8.55;;;26.30;13.20;;;;;;5071598;28;20021;-85
2022/03/12 12:08:28;;;;;;;20.17;9.05;;;26.60;13.10;;;;;;5074363;28;20074;-86
2022/03/12 12:10:58;;;;;;;16.42;7.70;;;27.10;13.10;;;;;;5073189;28;20023;-86
2022/03/12 12:13:24;;;;;;;13.98;7.43;;;27.30;12.60;;;;;;5073515;28;20025;-85
2022/03/12 12:15:49;;;;;;;16.17;8.07;;;27.30;12.00;;;;;;5076951;28;20046;-85
2022/03/12 12:18:15;;;;;;;16.63;8.43;;;27.30;12.00;;;;;;5078393;28;20124;-85
2022/03/12 12:20:41;;;;;;;13.27;8.38;;;27.30;12.20;;;;;;5078850;28;20076;-86
2022/03/12 12:23:16;;;;;;;16.52;8.85;;;27.40;12.00;;;;;;5079431;28;20037;-85
2022/03/12 12:25:42;;;;;;;15.80;7.80;;;27.40;11.80;;;;;;5076512;28;20033;-85